sensor_id;sensor_type;location;lat;lon;timestamp;P1;durP1;ratioP1;P2;durP2;ratioP2
74108;SDS011;62466;47.566;7.786;2022-08-25T00:00:09;2.47;;;1.98;;
74108;SDS011;62466;47.566;7.786;2022-08-25T00:02:36;2.97;;;2.35;;
74108;SDS011;62466;47.566;7.786;2022-08-25T00:05:02;2.30;;;2.00;;
74108;SDS011;62466;47.566;7.786;2022-08-25T00:07:28;1.98;;;1.88;;
74108;SDS011;62466;47.566;7.786;2022-08-25T00:09:54;1.95;;;1.75;;
74108;SDS011;62466;47.566;7.786;2022-08-25T00:12:19;1.90;;;1.80;;
74108;SDS011;62466;47.566;7.786;2022-08-25T00:14:45;2.13;;;1.92;;
74108;SDS011;62466;47.566;7.786;2022-08-25T00:17:10;2.30;;;2.10;;
74108;SDS011;62466;47.566;7.786;2022-08-25T00:19:36;2.63;;;2.42;;
74108;SDS011;62466;47.566;7.786;2022-08-25T00:22:02;2.20;;;2.00;;
74108;SDS011;62466;47.566;7.786;2022-08-25T00:24:28;3.08;;;2.25;;
74108;SDS011;62466;47.566;7.786;2022-08-25T00:26:55;2.38;;;2.05;;
74108;SDS011;62466;47.566;7.786;2022-08-25T00:29:22;2.88;;;2.00;;
74108;SDS011;62466;47.566;7.786;2022-08-25T00:31:52;2.45;;;2.25;;
74108;SDS011;62466;47.566;7.786;2022-08-25T00:34:21;2.88;;;2.20;;
74108;SDS011;62466;47.566;7.786;2022-08-25T00:36:49;2.30;;;2.10;;
74108;SDS011;62466;47.566;7.786;2022-08-25T00:39:18;2.30;;;2.10;;
74108;SDS011;62466;47.566;7.786;2022-08-25T00:41:46;2.40;;;2.20;;
74108;SDS011;62466;47.566;7.786;2022-08-25T00:44:13;2.15;;;1.80;;
74108;SDS011;62466;47.566;7.786;2022-08-25T00:46:43;2.40;;;1.98;;
74108;SDS011;62466;47.566;7.786;2022-08-25T00:49:15;2.20;;;2.00;;
74108;SDS011;62466;47.566;7.786;2022-08-25T00:51:52;3.63;;;2.17;;
74108;SDS011;62466;47.566;7.786;2022-08-25T00:54:26;3.60;;;2.40;;
74108;SDS011;62466;47.566;7.786;2022-08-25T00:56:56;2.33;;;2.13;;
74108;SDS011;62466;47.566;7.786;2022-08-25T00:59:22;2.80;;;2.33;;
74108;SDS011;62466;47.566;7.786;2022-08-25T01:01:48;2.13;;;1.92;;
74108;SDS011;62466;47.566;7.786;2022-08-25T01:04:15;2.35;;;1.92;;
74108;SDS011;62466;47.566;7.786;2022-08-25T01:06:41;2.92;;;2.20;;
74108;SDS011;62466;47.566;7.786;2022-08-25T01:09:11;2.50;;;2.30;;
74108;SDS011;62466;47.566;7.786;2022-08-25T01:11:38;2.45;;;2.05;;
74108;SDS011;62466;47.566;7.786;2022-08-25T01:14:05;3.03;;;1.92;;
74108;SDS011;62466;47.566;7.786;2022-08-25T01:16:32;2.85;;;1.90;;
74108;SDS011;62466;47.566;7.786;2022-08-25T01:18:58;2.00;;;1.90;;
74108;SDS011;62466;47.566;7.786;2022-08-25T01:21:25;2.38;;;2.00;;
74108;SDS011;62466;47.566;7.786;2022-08-25T01:23:52;2.95;;;1.73;;
74108;SDS011;62466;47.566;7.786;2022-08-25T01:26:24;2.90;;;2.20;;
74108;SDS011;62466;47.566;7.786;2022-08-25T01:28:51;2.42;;;2.20;;
74108;SDS011;62466;47.566;7.786;2022-08-25T01:31:36;3.38;;;2.08;;
74108;SDS011;62466;47.566;7.786;2022-08-25T01:34:02;3.05;;;1.88;;
74108;SDS011;62466;47.566;7.786;2022-08-25T01:36:30;3.33;;;2.20;;
74108;SDS011;62466;47.566;7.786;2022-08-25T01:38:57;2.35;;;2.08;;
74108;SDS011;62466;47.566;7.786;2022-08-25T01:43:54;2.30;;;1.90;;
74108;SDS011;62466;47.566;7.786;2022-08-25T01:46:20;1.95;;;1.85;;
74108;SDS011;62466;47.566;7.786;2022-08-25T01:48:46;2.40;;;2.20;;
74108;SDS011;62466;47.566;7.786;2022-08-25T01:51:13;3.53;;;2.10;;
74108;SDS011;62466;47.566;7.786;2022-08-25T01:53:39;4.07;;;2.00;;
74108;SDS011;62466;47.566;7.786;2022-08-25T01:56:13;3.28;;;2.08;;
74108;SDS011;62466;47.566;7.786;2022-08-25T01:58:43;2.78;;;2.20;;
74108;SDS011;62466;47.566;7.786;2022-08-25T02:01:11;2.63;;;2.10;;
74108;SDS011;62466;47.566;7.786;2022-08-25T02:03:40;2.40;;;2.15;;
74108;SDS011;62466;47.566;7.786;2022-08-25T02:06:07;2.40;;;1.80;;
74108;SDS011;62466;47.566;7.786;2022-08-25T02:08:33;2.40;;;2.20;;
74108;SDS011;62466;47.566;7.786;2022-08-25T02:10:59;1.83;;;1.73;;
74108;SDS011;62466;47.566;7.786;2022-08-25T02:13:25;2.40;;;2.20;;
74108;SDS011;62466;47.566;7.786;2022-08-25T02:15:51;2.20;;;2.00;;
74108;SDS011;62466;47.566;7.786;2022-08-25T02:18:18;2.10;;;1.90;;
74108;SDS011;62466;47.566;7.786;2022-08-25T02:20:44;2.40;;;2.15;;
74108;SDS011;62466;47.566;7.786;2022-08-25T02:23:10;2.08;;;1.88;;
74108;SDS011;62466;47.566;7.786;2022-08-25T02:25:36;3.35;;;2.00;;
74108;SDS011;62466;47.566;7.786;2022-08-25T02:28:03;2.35;;;1.90;;
74108;SDS011;62466;47.566;7.786;2022-08-25T02:30:28;1.83;;;1.73;;
74108;SDS011;62466;47.566;7.786;2022-08-25T02:32:54;3.67;;;1.90;;
74108;SDS011;62466;47.566;7.786;2022-08-25T02:35:20;2.42;;;2.22;;
74108;SDS011;62466;47.566;7.786;2022-08-25T02:37:46;2.25;;;2.00;;
74108;SDS011;62466;47.566;7.786;2022-08-25T02:40:11;2.80;;;1.92;;
74108;SDS011;62466;47.566;7.786;2022-08-25T02:42:37;1.95;;;1.80;;
74108;SDS011;62466;47.566;7.786;2022-08-25T02:45:02;2.00;;;1.70;;
74108;SDS011;62466;47.566;7.786;2022-08-25T02:47:28;2.33;;;2.17;;
74108;SDS011;62466;47.566;7.786;2022-08-25T02:49:56;2.25;;;2.05;;
74108;SDS011;62466;47.566;7.786;2022-08-25T02:52:21;3.88;;;2.55;;
74108;SDS011;62466;47.566;7.786;2022-08-25T02:54:47;1.75;;;1.65;;
74108;SDS011;62466;47.566;7.786;2022-08-25T02:57:12;1.88;;;1.77;;
74108;SDS011;62466;47.566;7.786;2022-08-25T02:59:39;2.38;;;2.15;;
74108;SDS011;62466;47.566;7.786;2022-08-25T03:02:05;2.15;;;1.80;;
74108;SDS011;62466;47.566;7.786;2022-08-25T03:04:31;1.90;;;1.80;;
74108;SDS011;62466;47.566;7.786;2022-08-25T03:06:56;2.20;;;2.00;;
74108;SDS011;62466;47.566;7.786;2022-08-25T03:09:23;1.75;;;1.60;;
74108;SDS011;62466;47.566;7.786;2022-08-25T03:11:49;1.80;;;1.70;;
74108;SDS011;62466;47.566;7.786;2022-08-25T03:14:14;1.83;;;1.73;;
74108;SDS011;62466;47.566;7.786;2022-08-25T03:16:40;3.20;;;2.05;;
74108;SDS011;62466;47.566;7.786;2022-08-25T03:19:08;2.00;;;1.80;;
74108;SDS011;62466;47.566;7.786;2022-08-25T03:21:33;2.50;;;1.75;;
74108;SDS011;62466;47.566;7.786;2022-08-25T03:24:02;2.85;;;1.98;;
74108;SDS011;62466;47.566;7.786;2022-08-25T03:26:28;2.47;;;1.95;;
74108;SDS011;62466;47.566;7.786;2022-08-25T03:29:12;1.80;;;1.70;;
74108;SDS011;62466;47.566;7.786;2022-08-25T03:31:38;2.97;;;2.35;;
74108;SDS011;62466;47.566;7.786;2022-08-25T03:34:04;2.38;;;1.80;;
74108;SDS011;62466;47.566;7.786;2022-08-25T03:36:29;2.30;;;1.80;;
74108;SDS011;62466;47.566;7.786;2022-08-25T03:38:55;1.90;;;1.80;;
74108;SDS011;62466;47.566;7.786;2022-08-25T03:41:22;1.63;;;1.52;;
74108;SDS011;62466;47.566;7.786;2022-08-25T03:43:56;2.08;;;1.90;;
74108;SDS011;62466;47.566;7.786;2022-08-25T03:46:24;2.15;;;1.65;;
74108;SDS011;62466;47.566;7.786;2022-08-25T03:48:53;1.63;;;1.53;;
74108;SDS011;62466;47.566;7.786;2022-08-25T03:51:24;1.77;;;1.67;;
74108;SDS011;62466;47.566;7.786;2022-08-25T03:53:51;1.92;;;1.60;;
74108;SDS011;62466;47.566;7.786;2022-08-25T03:56:17;1.98;;;1.77;;
74108;SDS011;62466;47.566;7.786;2022-08-25T03:58:43;2.20;;;2.00;;
74108;SDS011;62466;47.566;7.786;2022-08-25T04:01:09;2.08;;;1.98;;
74108;SDS011;62466;47.566;7.786;2022-08-25T04:03:34;1.70;;;1.60;;
74108;SDS011;62466;47.566;7.786;2022-08-25T04:06:01;1.77;;;1.67;;
74108;SDS011;62466;47.566;7.786;2022-08-25T04:08:27;1.77;;;1.67;;
74108;SDS011;62466;47.566;7.786;2022-08-25T04:10:52;2.38;;;2.17;;
74108;SDS011;62466;47.566;7.786;2022-08-25T04:13:19;3.20;;;1.60;;
74108;SDS011;62466;47.566;7.786;2022-08-25T04:15:45;1.90;;;1.80;;
74108;SDS011;62466;47.566;7.786;2022-08-25T04:18:11;2.20;;;1.90;;
74108;SDS011;62466;47.566;7.786;2022-08-25T04:20:38;3.78;;;1.70;;
74108;SDS011;62466;47.566;7.786;2022-08-25T04:23:04;1.90;;;1.63;;
74108;SDS011;62466;47.566;7.786;2022-08-25T04:25:30;1.88;;;1.77;;
74108;SDS011;62466;47.566;7.786;2022-08-25T04:27:55;2.33;;;1.98;;
74108;SDS011;62466;47.566;7.786;2022-08-25T04:30:21;2.28;;;1.80;;
74108;SDS011;62466;47.566;7.786;2022-08-25T04:32:47;2.10;;;1.90;;
74108;SDS011;62466;47.566;7.786;2022-08-25T04:35:13;2.22;;;2.03;;
74108;SDS011;62466;47.566;7.786;2022-08-25T04:37:39;1.95;;;1.75;;
74108;SDS011;62466;47.566;7.786;2022-08-25T04:40:05;3.03;;;1.98;;
74108;SDS011;62466;47.566;7.786;2022-08-25T04:42:31;1.92;;;1.83;;
74108;SDS011;62466;47.566;7.786;2022-08-25T04:44:56;2.03;;;1.90;;
74108;SDS011;62466;47.566;7.786;2022-08-25T04:47:22;2.65;;;1.60;;
74108;SDS011;62466;47.566;7.786;2022-08-25T04:49:47;2.00;;;1.90;;
74108;SDS011;62466;47.566;7.786;2022-08-25T04:52:13;2.35;;;1.60;;
74108;SDS011;62466;47.566;7.786;2022-08-25T04:54:38;3.13;;;1.98;;
74108;SDS011;62466;47.566;7.786;2022-08-25T04:57:04;1.90;;;1.80;;
74108;SDS011;62466;47.566;7.786;2022-08-25T04:59:30;2.00;;;1.90;;
74108;SDS011;62466;47.566;7.786;2022-08-25T05:01:57;3.05;;;1.85;;
74108;SDS011;62466;47.566;7.786;2022-08-25T05:04:26;1.98;;;1.75;;
74108;SDS011;62466;47.566;7.786;2022-08-25T05:06:51;2.67;;;1.80;;
74108;SDS011;62466;47.566;7.786;2022-08-25T05:09:17;2.70;;;2.20;;
74108;SDS011;62466;47.566;7.786;2022-08-25T05:11:42;3.33;;;2.80;;
74108;SDS011;62466;47.566;7.786;2022-08-25T05:14:08;6.57;;;3.53;;
74108;SDS011;62466;47.566;7.786;2022-08-25T05:16:36;4.93;;;3.53;;
74108;SDS011;62466;47.566;7.786;2022-08-25T05:19:02;3.90;;;3.50;;
74108;SDS011;62466;47.566;7.786;2022-08-25T05:21:29;6.18;;;3.63;;
74108;SDS011;62466;47.566;7.786;2022-08-25T05:23:57;5.15;;;3.67;;
74108;SDS011;62466;47.566;7.786;2022-08-25T05:26:25;6.57;;;3.83;;
74108;SDS011;62466;47.566;7.786;2022-08-25T05:28:52;5.97;;;3.83;;
74108;SDS011;62466;47.566;7.786;2022-08-25T05:31:19;3.75;;;3.00;;
74108;SDS011;62466;47.566;7.786;2022-08-25T05:33:45;6.03;;;3.65;;
74108;SDS011;62466;47.566;7.786;2022-08-25T05:36:11;4.95;;;3.47;;
74108;SDS011;62466;47.566;7.786;2022-08-25T05:38:37;5.00;;;3.85;;
74108;SDS011;62466;47.566;7.786;2022-08-25T05:41:06;4.03;;;3.53;;
74108;SDS011;62466;47.566;7.786;2022-08-25T05:43:35;5.05;;;3.30;;
74108;SDS011;62466;47.566;7.786;2022-08-25T05:46:01;4.38;;;3.55;;
74108;SDS011;62466;47.566;7.786;2022-08-25T05:48:26;3.85;;;3.53;;
74108;SDS011;62466;47.566;7.786;2022-08-25T05:53:22;3.53;;;2.95;;
74108;SDS011;62466;47.566;7.786;2022-08-25T05:55:49;3.50;;;3.20;;
74108;SDS011;62466;47.566;7.786;2022-08-25T05:58:15;3.25;;;2.92;;
74108;SDS011;62466;47.566;7.786;2022-08-25T06:00:41;4.65;;;3.33;;
74108;SDS011;62466;47.566;7.786;2022-08-25T06:03:06;3.67;;;3.20;;
74108;SDS011;62466;47.566;7.786;2022-08-25T06:05:32;3.53;;;2.90;;
74108;SDS011;62466;47.566;7.786;2022-08-25T06:07:58;4.10;;;3.22;;
74108;SDS011;62466;47.566;7.786;2022-08-25T06:10:23;4.55;;;3.85;;
74108;SDS011;62466;47.566;7.786;2022-08-25T06:12:49;8.52;;;3.65;;
74108;SDS011;62466;47.566;7.786;2022-08-25T06:15:16;4.93;;;2.75;;
74108;SDS011;62466;47.566;7.786;2022-08-25T06:17:43;5.15;;;3.70;;
74108;SDS011;62466;47.566;7.786;2022-08-25T06:20:11;3.97;;;3.15;;
74108;SDS011;62466;47.566;7.786;2022-08-25T06:22:39;5.38;;;3.70;;
74108;SDS011;62466;47.566;7.786;2022-08-25T06:25:05;4.20;;;3.20;;
74108;SDS011;62466;47.566;7.786;2022-08-25T06:27:32;3.30;;;2.78;;
74108;SDS011;62466;47.566;7.786;2022-08-25T06:29:58;3.10;;;2.85;;
74108;SDS011;62466;47.566;7.786;2022-08-25T06:32:29;3.88;;;2.83;;
74108;SDS011;62466;47.566;7.786;2022-08-25T06:35:00;6.50;;;3.20;;
74108;SDS011;62466;47.566;7.786;2022-08-25T06:37:26;4.75;;;2.40;;
74108;SDS011;62466;47.566;7.786;2022-08-25T06:39:51;3.03;;;2.78;;
74108;SDS011;62466;47.566;7.786;2022-08-25T06:42:17;3.42;;;2.60;;
74108;SDS011;62466;47.566;7.786;2022-08-25T06:44:42;5.68;;;3.20;;
74108;SDS011;62466;47.566;7.786;2022-08-25T06:47:07;3.58;;;2.42;;
74108;SDS011;62466;47.566;7.786;2022-08-25T06:49:33;2.63;;;2.42;;
74108;SDS011;62466;47.566;7.786;2022-08-25T06:51:59;6.07;;;2.60;;
74108;SDS011;62466;47.566;7.786;2022-08-25T06:54:25;4.03;;;2.50;;
74108;SDS011;62466;47.566;7.786;2022-08-25T06:56:50;3.42;;;2.50;;
74108;SDS011;62466;47.566;7.786;2022-08-25T06:59:16;5.72;;;2.83;;
74108;SDS011;62466;47.566;7.786;2022-08-25T07:01:41;2.97;;;2.40;;
74108;SDS011;62466;47.566;7.786;2022-08-25T07:04:07;2.50;;;2.25;;
74108;SDS011;62466;47.566;7.786;2022-08-25T07:06:33;3.45;;;2.13;;
74108;SDS011;62466;47.566;7.786;2022-08-25T07:09:03;4.57;;;2.80;;
74108;SDS011;62466;47.566;7.786;2022-08-25T07:11:29;6.03;;;2.50;;
74108;SDS011;62466;47.566;7.786;2022-08-25T07:13:59;4.07;;;2.30;;
74108;SDS011;62466;47.566;7.786;2022-08-25T07:16:28;4.13;;;2.38;;
74108;SDS011;62466;47.566;7.786;2022-08-25T07:18:53;5.22;;;2.30;;
74108;SDS011;62466;47.566;7.786;2022-08-25T07:21:22;2.13;;;2.00;;
74108;SDS011;62466;47.566;7.786;2022-08-25T07:23:48;3.05;;;2.22;;
74108;SDS011;62466;47.566;7.786;2022-08-25T07:26:15;2.78;;;1.92;;
74108;SDS011;62466;47.566;7.786;2022-08-25T07:28:45;2.75;;;2.38;;
74108;SDS011;62466;47.566;7.786;2022-08-25T07:31:11;2.97;;;2.25;;
74108;SDS011;62466;47.566;7.786;2022-08-25T07:33:37;2.80;;;2.15;;
74108;SDS011;62466;47.566;7.786;2022-08-25T07:36:23;2.55;;;2.35;;
74108;SDS011;62466;47.566;7.786;2022-08-25T07:38:49;4.63;;;3.30;;
74108;SDS011;62466;47.566;7.786;2022-08-25T07:41:15;2.67;;;2.30;;
74108;SDS011;62466;47.566;7.786;2022-08-25T07:43:40;2.40;;;2.13;;
74108;SDS011;62466;47.566;7.786;2022-08-25T07:46:06;5.32;;;2.38;;
74108;SDS011;62466;47.566;7.786;2022-08-25T07:48:31;3.75;;;2.60;;
74108;SDS011;62466;47.566;7.786;2022-08-25T07:50:57;2.35;;;2.00;;
74108;SDS011;62466;47.566;7.786;2022-08-25T07:53:22;3.78;;;2.10;;
74108;SDS011;62466;47.566;7.786;2022-08-25T07:55:48;2.50;;;2.30;;
74108;SDS011;62466;47.566;7.786;2022-08-25T07:58:14;2.42;;;2.20;;
74108;SDS011;62466;47.566;7.786;2022-08-25T08:00:39;2.67;;;2.22;;
74108;SDS011;62466;47.566;7.786;2022-08-25T08:03:06;2.88;;;2.40;;
74108;SDS011;62466;47.566;7.786;2022-08-25T08:05:33;4.07;;;2.40;;
74108;SDS011;62466;47.566;7.786;2022-08-25T08:08:00;2.55;;;2.20;;
74108;SDS011;62466;47.566;7.786;2022-08-25T08:10:26;2.05;;;1.95;;
74108;SDS011;62466;47.566;7.786;2022-08-25T08:12:52;5.63;;;2.50;;
74108;SDS011;62466;47.566;7.786;2022-08-25T08:15:18;3.88;;;2.00;;
74108;SDS011;62466;47.566;7.786;2022-08-25T08:17:43;2.17;;;1.98;;
74108;SDS011;62466;47.566;7.786;2022-08-25T08:20:10;3.00;;;2.00;;
74108;SDS011;62466;47.566;7.786;2022-08-25T08:22:37;2.88;;;2.13;;
74108;SDS011;62466;47.566;7.786;2022-08-25T08:25:05;2.40;;;2.20;;
74108;SDS011;62466;47.566;7.786;2022-08-25T08:27:32;4.13;;;2.42;;
74108;SDS011;62466;47.566;7.786;2022-08-25T08:29:58;3.95;;;1.88;;
74108;SDS011;62466;47.566;7.786;2022-08-25T08:32:23;2.33;;;2.00;;
74108;SDS011;62466;47.566;7.786;2022-08-25T08:34:49;4.78;;;2.53;;
74108;SDS011;62466;47.566;7.786;2022-08-25T08:37:14;3.80;;;2.00;;
74108;SDS011;62466;47.566;7.786;2022-08-25T08:39:40;2.63;;;2.40;;
74108;SDS011;62466;47.566;7.786;2022-08-25T08:49:48;2.60;;;2.08;;
74108;SDS011;62466;47.566;7.786;2022-08-25T08:52:27;5.05;;;2.38;;
74108;SDS011;62466;47.566;7.786;2022-08-25T08:55:03;2.40;;;2.20;;
74108;SDS011;62466;47.566;7.786;2022-08-25T08:57:32;4.03;;;2.03;;
74108;SDS011;62466;47.566;7.786;2022-08-25T09:00:04;1.90;;;1.80;;
74108;SDS011;62466;47.566;7.786;2022-08-25T09:02:32;3.25;;;1.80;;
74108;SDS011;62466;47.566;7.786;2022-08-25T09:05:01;2.67;;;2.25;;
74108;SDS011;62466;47.566;7.786;2022-08-25T09:07:30;3.10;;;2.55;;
74108;SDS011;62466;47.566;7.786;2022-08-25T09:09:59;2.53;;;2.33;;
74108;SDS011;62466;47.566;7.786;2022-08-25T09:12:30;2.20;;;2.00;;
74108;SDS011;62466;47.566;7.786;2022-08-25T09:15:12;2.95;;;2.05;;
74108;SDS011;62466;47.566;7.786;2022-08-25T09:26:06;4.40;;;2.00;;
74108;SDS011;62466;47.566;7.786;2022-08-25T09:28:47;6.68;;;2.28;;
74108;SDS011;62466;47.566;7.786;2022-08-25T09:33:47;3.17;;;2.20;;
74108;SDS011;62466;47.566;7.786;2022-08-25T09:36:13;2.03;;;1.55;;
74108;SDS011;62466;47.566;7.786;2022-08-25T09:38:39;3.05;;;2.03;;
74108;SDS011;62466;47.566;7.786;2022-08-25T09:41:04;3.00;;;1.85;;
74108;SDS011;62466;47.566;7.786;2022-08-25T09:43:32;3.28;;;1.85;;
74108;SDS011;62466;47.566;7.786;2022-08-25T09:46:09;2.20;;;2.00;;
74108;SDS011;62466;47.566;7.786;2022-08-25T09:48:45;2.33;;;2.10;;
74108;SDS011;62466;47.566;7.786;2022-08-25T09:54:24;2.45;;;2.25;;
74108;SDS011;62466;47.566;7.786;2022-08-25T09:56:53;2.30;;;2.10;;
74108;SDS011;62466;47.566;7.786;2022-08-25T09:59:27;2.15;;;1.95;;
74108;SDS011;62466;47.566;7.786;2022-08-25T10:01:56;2.45;;;2.10;;
74108;SDS011;62466;47.566;7.786;2022-08-25T10:04:30;2.33;;;2.10;;
74108;SDS011;62466;47.566;7.786;2022-08-25T10:07:04;2.45;;;2.08;;
74108;SDS011;62466;47.566;7.786;2022-08-25T10:09:44;2.30;;;2.08;;
74108;SDS011;62466;47.566;7.786;2022-08-25T10:12:20;2.03;;;1.85;;
74108;SDS011;62466;47.566;7.786;2022-08-25T10:14:55;2.83;;;2.13;;
74108;SDS011;62466;47.566;7.786;2022-08-25T10:17:25;2.80;;;1.88;;
74108;SDS011;62466;47.566;7.786;2022-08-25T10:20:37;2.45;;;2.20;;
74108;SDS011;62466;47.566;7.786;2022-08-25T10:22:42;2.83;;;1.80;;
74108;SDS011;62466;47.566;7.786;2022-08-25T10:25:10;2.42;;;2.22;;
74108;SDS011;62466;47.566;7.786;2022-08-25T10:43:47;2.53;;;2.00;;
74108;SDS011;62466;47.566;7.786;2022-08-25T10:46:38;2.38;;;2.17;;
74108;SDS011;62466;47.566;7.786;2022-08-25T10:49:24;2.92;;;2.60;;
74108;SDS011;62466;47.566;7.786;2022-08-25T10:52:02;4.30;;;1.90;;
74108;SDS011;62466;47.566;7.786;2022-08-25T10:57:45;3.65;;;2.47;;
74108;SDS011;62466;47.566;7.786;2022-08-25T11:00:21;4.93;;;3.33;;
74108;SDS011;62466;47.566;7.786;2022-08-25T11:02:55;9.40;;;2.42;;
74108;SDS011;62466;47.566;7.786;2022-08-25T11:05:27;3.25;;;2.42;;
74108;SDS011;62466;47.566;7.786;2022-08-25T11:08:31;3.05;;;2.33;;
74108;SDS011;62466;47.566;7.786;2022-08-25T11:11:01;3.45;;;2.40;;
74108;SDS011;62466;47.566;7.786;2022-08-25T11:16:44;2.70;;;2.50;;
74108;SDS011;62466;47.566;7.786;2022-08-25T11:19:20;4.25;;;1.80;;
74108;SDS011;62466;47.566;7.786;2022-08-25T11:21:52;2.08;;;1.90;;
74108;SDS011;62466;47.566;7.786;2022-08-25T11:24:27;2.28;;;1.95;;
74108;SDS011;62466;47.566;7.786;2022-08-25T11:26:57;3.00;;;2.00;;
74108;SDS011;62466;47.566;7.786;2022-08-25T11:29:30;2.13;;;1.92;;
74108;SDS011;62466;47.566;7.786;2022-08-25T11:32:00;2.55;;;2.10;;
74108;SDS011;62466;47.566;7.786;2022-08-25T11:34:26;2.53;;;2.22;;
74108;SDS011;62466;47.566;7.786;2022-08-25T11:37:00;2.75;;;2.38;;
74108;SDS011;62466;47.566;7.786;2022-08-25T11:42:42;3.20;;;1.83;;
74108;SDS011;62466;47.566;7.786;2022-08-25T11:48:17;2.15;;;1.90;;
74108;SDS011;62466;47.566;7.786;2022-08-25T11:51:00;2.08;;;1.98;;
74108;SDS011;62466;47.566;7.786;2022-08-25T11:53:29;3.08;;;2.13;;
74108;SDS011;62466;47.566;7.786;2022-08-25T11:56:00;3.55;;;2.00;;
74108;SDS011;62466;47.566;7.786;2022-08-25T12:14:51;3.10;;;1.83;;
74108;SDS011;62466;47.566;7.786;2022-08-25T12:17:18;3.45;;;1.70;;
74108;SDS011;62466;47.566;7.786;2022-08-25T12:19:53;3.10;;;1.98;;
74108;SDS011;62466;47.566;7.786;2022-08-25T12:25:13;1.88;;;1.77;;
74108;SDS011;62466;47.566;7.786;2022-08-25T12:38:28;4.10;;;2.60;;
74108;SDS011;62466;47.566;7.786;2022-08-25T12:41:40;3.53;;;2.00;;
74108;SDS011;62466;47.566;7.786;2022-08-25T12:43:49;2.20;;;2.00;;
74108;SDS011;62466;47.566;7.786;2022-08-25T12:54:15;3.25;;;2.13;;
74108;SDS011;62466;47.566;7.786;2022-08-25T12:56:44;2.15;;;2.00;;
74108;SDS011;62466;47.566;7.786;2022-08-25T12:59:22;3.00;;;2.00;;
74108;SDS011;62466;47.566;7.786;2022-08-25T13:16:14;2.33;;;2.10;;
74108;SDS011;62466;47.566;7.786;2022-08-25T13:18:42;2.17;;;2.05;;
74108;SDS011;62466;47.566;7.786;2022-08-25T13:23:42;2.58;;;1.80;;
74108;SDS011;62466;47.566;7.786;2022-08-25T13:26:20;2.17;;;1.80;;
74108;SDS011;62466;47.566;7.786;2022-08-25T13:28:57;2.33;;;1.80;;
74108;SDS011;62466;47.566;7.786;2022-08-25T13:31:31;2.90;;;2.05;;
74108;SDS011;62466;47.566;7.786;2022-08-25T13:34:02;2.08;;;1.73;;
74108;SDS011;62466;47.566;7.786;2022-08-25T13:36:31;2.00;;;1.83;;
74108;SDS011;62466;47.566;7.786;2022-08-25T13:39:26;2.03;;;1.67;;
74108;SDS011;62466;47.566;7.786;2022-08-25T13:41:57;2.28;;;1.77;;
74108;SDS011;62466;47.566;7.786;2022-08-25T13:44:23;2.10;;;1.90;;
74108;SDS011;62466;47.566;7.786;2022-08-25T13:47:10;2.15;;;1.83;;
74108;SDS011;62466;47.566;7.786;2022-08-25T13:49:38;2.20;;;1.88;;
74108;SDS011;62466;47.566;7.786;2022-08-25T13:52:05;1.90;;;1.80;;
74108;SDS011;62466;47.566;7.786;2022-08-25T13:54:36;2.63;;;1.85;;
74108;SDS011;62466;47.566;7.786;2022-08-25T13:57:14;1.80;;;1.70;;
74108;SDS011;62466;47.566;7.786;2022-08-25T13:59:43;3.10;;;1.77;;
74108;SDS011;62466;47.566;7.786;2022-08-25T14:02:25;1.60;;;1.48;;
74108;SDS011;62466;47.566;7.786;2022-08-25T14:05:03;4.00;;;1.77;;
74108;SDS011;62466;47.566;7.786;2022-08-25T14:07:29;1.83;;;1.50;;
74108;SDS011;62466;47.566;7.786;2022-08-25T14:12:40;3.25;;;1.75;;
74108;SDS011;62466;47.566;7.786;2022-08-25T14:15:11;3.13;;;1.88;;
74108;SDS011;62466;47.566;7.786;2022-08-25T14:20:05;1.75;;;1.50;;
74108;SDS011;62466;47.566;7.786;2022-08-25T14:22:38;3.10;;;1.45;;
74108;SDS011;62466;47.566;7.786;2022-08-25T14:25:04;2.42;;;1.58;;
74108;SDS011;62466;47.566;7.786;2022-08-25T14:27:30;1.70;;;1.60;;
74108;SDS011;62466;47.566;7.786;2022-08-25T14:29:55;2.20;;;1.80;;
74108;SDS011;62466;47.566;7.786;2022-08-25T14:32:21;2.50;;;1.80;;
74108;SDS011;62466;47.566;7.786;2022-08-25T14:34:47;1.67;;;1.58;;
74108;SDS011;62466;47.566;7.786;2022-08-25T14:37:14;2.15;;;1.73;;
74108;SDS011;62466;47.566;7.786;2022-08-25T14:39:41;2.13;;;2.00;;
74108;SDS011;62466;47.566;7.786;2022-08-25T14:42:07;1.83;;;1.70;;
74108;SDS011;62466;47.566;7.786;2022-08-25T14:44:32;1.70;;;1.52;;
74108;SDS011;62466;47.566;7.786;2022-08-25T14:46:58;2.33;;;1.92;;
74108;SDS011;62466;47.566;7.786;2022-08-25T14:49:27;5.43;;;1.90;;
74108;SDS011;62466;47.566;7.786;2022-08-25T14:51:57;2.90;;;1.75;;
74108;SDS011;62466;47.566;7.786;2022-08-25T14:54:36;1.80;;;1.60;;
74108;SDS011;62466;47.566;7.786;2022-08-25T14:57:02;5.13;;;1.77;;
74108;SDS011;62466;47.566;7.786;2022-08-25T14:59:27;1.80;;;1.70;;
74108;SDS011;62466;47.566;7.786;2022-08-25T15:01:53;3.60;;;1.98;;
74108;SDS011;62466;47.566;7.786;2022-08-25T15:04:20;3.10;;;2.17;;
74108;SDS011;62466;47.566;7.786;2022-08-25T15:06:49;2.03;;;1.92;;
74108;SDS011;62466;47.566;7.786;2022-08-25T15:09:16;1.92;;;1.80;;
74108;SDS011;62466;47.566;7.786;2022-08-25T15:11:43;4.00;;;1.92;;
74108;SDS011;62466;47.566;7.786;2022-08-25T15:14:12;2.92;;;1.65;;
74108;SDS011;62466;47.566;7.786;2022-08-25T15:16:43;2.00;;;1.80;;
74108;SDS011;62466;47.566;7.786;2022-08-25T15:21:38;2.13;;;2.03;;
74108;SDS011;62466;47.566;7.786;2022-08-25T15:24:05;2.25;;;1.80;;
74108;SDS011;62466;47.566;7.786;2022-08-25T15:26:34;2.50;;;1.90;;
74108;SDS011;62466;47.566;7.786;2022-08-25T15:29:05;2.30;;;2.10;;
74108;SDS011;62466;47.566;7.786;2022-08-25T15:31:30;2.97;;;2.20;;
74108;SDS011;62466;47.566;7.786;2022-08-25T15:33:56;3.08;;;2.05;;
74108;SDS011;62466;47.566;7.786;2022-08-25T15:36:23;2.10;;;2.00;;
74108;SDS011;62466;47.566;7.786;2022-08-25T15:38:49;2.08;;;1.98;;
74108;SDS011;62466;47.566;7.786;2022-08-25T15:41:14;2.30;;;2.10;;
74108;SDS011;62466;47.566;7.786;2022-08-25T15:43:40;1.90;;;1.80;;
74108;SDS011;62466;47.566;7.786;2022-08-25T15:46:07;3.22;;;2.08;;
74108;SDS011;62466;47.566;7.786;2022-08-25T15:48:33;2.35;;;2.17;;
74108;SDS011;62466;47.566;7.786;2022-08-25T15:51:00;2.20;;;2.00;;
74108;SDS011;62466;47.566;7.786;2022-08-25T15:53:26;2.05;;;1.85;;
74108;SDS011;62466;47.566;7.786;2022-08-25T15:55:52;2.13;;;2.00;;
74108;SDS011;62466;47.566;7.786;2022-08-25T15:58:18;2.85;;;2.33;;
74108;SDS011;62466;47.566;7.786;2022-08-25T16:00:44;3.35;;;2.10;;
74108;SDS011;62466;47.566;7.786;2022-08-25T16:03:10;2.30;;;2.10;;
74108;SDS011;62466;47.566;7.786;2022-08-25T16:05:37;2.80;;;2.38;;
74108;SDS011;62466;47.566;7.786;2022-08-25T16:08:04;2.42;;;2.22;;
74108;SDS011;62466;47.566;7.786;2022-08-25T16:10:33;2.35;;;2.13;;
74108;SDS011;62466;47.566;7.786;2022-08-25T16:12:59;2.63;;;2.30;;
74108;SDS011;62466;47.566;7.786;2022-08-25T16:15:26;2.72;;;2.10;;
74108;SDS011;62466;47.566;7.786;2022-08-25T16:17:52;3.03;;;2.15;;
74108;SDS011;62466;47.566;7.786;2022-08-25T16:20:17;1.92;;;1.80;;
74108;SDS011;62466;47.566;7.786;2022-08-25T16:22:44;2.83;;;2.20;;
74108;SDS011;62466;47.566;7.786;2022-08-25T16:25:10;3.00;;;2.28;;
74108;SDS011;62466;47.566;7.786;2022-08-25T16:27:36;3.70;;;2.50;;
74108;SDS011;62466;47.566;7.786;2022-08-25T16:30:01;2.60;;;2.30;;
74108;SDS011;62466;47.566;7.786;2022-08-25T16:32:27;2.40;;;2.00;;
74108;SDS011;62466;47.566;7.786;2022-08-25T16:34:52;3.83;;;1.95;;
74108;SDS011;62466;47.566;7.786;2022-08-25T16:37:18;3.15;;;1.88;;
74108;SDS011;62466;47.566;7.786;2022-08-25T16:39:44;2.22;;;1.92;;
74108;SDS011;62466;47.566;7.786;2022-08-25T16:42:10;2.58;;;1.80;;
74108;SDS011;62466;47.566;7.786;2022-08-25T16:44:36;2.45;;;1.90;;
74108;SDS011;62466;47.566;7.786;2022-08-25T16:47:04;2.15;;;1.92;;
74108;SDS011;62466;47.566;7.786;2022-08-25T16:49:29;3.17;;;2.30;;
74108;SDS011;62466;47.566;7.786;2022-08-25T16:51:55;3.35;;;2.20;;